Time;durP1;ratioP1;P1;durP2;ratioP2;P2;SDS_P1;SDS_P2;PMS_P1;PMS_P2;Temp;Humidity;BMP_temperature;BMP_pressure;BME280_temperature;BME280_humidity;BME280_pressure;Samples;Min_cycle;Max_cycle;Signal;HPM_P1;HPM_P2
2024/01/18 00:00:49;;;;;;;0.77;0.50;;;8.30;99.90;;;;;;2040122;28;20732;-70
2024/01/18 00:01:53;;;;;;;1.67;0.80;;;8.40;99.90;;;;;;2039660;28;20235;-70
2024/01/18 00:02:54;;;;;;;1.02;0.70;;;8.40;99.90;;;;;;2043300;28;20247;-70
2024/01/18 00:03:55;;;;;;;1.80;0.60;;;8.30;99.90;;;;;;2051714;28;20236;-70
2024/01/18 00:04:55;;;;;;;0.90;0.73;;;8.30;99.90;;;;;;2047076;28;20240;-70
2024/01/18 00:05:56;;;;;;;1.23;0.60;;;8.30;99.90;;;;;;2031321;28;20345;-71
2024/01/18 00:06:57;;;;;;;1.13;0.80;;;8.40;99.90;;;;;;2045752;28;20230;-70
2024/01/18 00:07:57;;;;;;;4.07;0.73;;;8.40;99.90;;;;;;2050615;28;20227;-70
2024/01/18 00:08:58;;;;;;;1.67;0.77;;;8.40;99.90;;;;;;2038944;28;20724;-71
2024/01/18 00:09:59;;;;;;;1.07;0.60;;;8.50;99.90;;;;;;2039956;28;20228;-70
2024/01/18 00:11:03;;;;;;;1.63;0.60;;;8.40;99.90;;;;;;2034653;29;20339;-70
2024/01/18 00:12:04;;;;;;;1.00;0.60;;;8.40;99.90;;;;;;2044893;28;20334;-70
2024/01/18 00:13:05;;;;;;;0.60;0.60;;;8.40;99.90;;;;;;2042632;28;20203;-70
2024/01/18 00:14:06;;;;;;;0.70;0.63;;;8.30;99.90;;;;;;2030155;29;20239;-70
2024/01/18 00:15:07;;;;;;;1.70;0.83;;;8.30;99.90;;;;;;2030145;29;20302;-70
2024/01/18 00:16:08;;;;;;;0.90;0.60;;;8.20;99.90;;;;;;2045796;28;20633;-70
2024/01/18 00:17:09;;;;;;;2.00;0.60;;;8.30;99.90;;;;;;2039985;28;20664;-70
2024/01/18 00:18:11;;;;;;;0.90;0.60;;;8.30;99.90;;;;;;2033022;29;20193;-70
2024/01/18 00:19:11;;;;;;;0.73;0.60;;;8.30;99.90;;;;;;2038077;28;20199;-70
2024/01/18 00:20:12;;;;;;;0.63;0.50;;;8.30;99.90;;;;;;2046879;28;20183;-70
2024/01/18 00:21:12;;;;;;;3.90;0.70;;;8.30;99.90;;;;;;2050104;28;20187;-69
2024/01/18 00:22:13;;;;;;;1.03;0.50;;;8.40;99.90;;;;;;2030763;28;20728;-69
2024/01/18 00:23:14;;;;;;;1.43;0.60;;;8.40;99.90;;;;;;2039005;28;20196;-70
2024/01/18 00:24:15;;;;;;;0.50;0.43;;;8.40;99.90;;;;;;2047375;28;20183;-70
2024/01/18 00:25:16;;;;;;;1.27;0.63;;;8.40;99.90;;;;;;2047473;28;20206;-69
2024/01/18 00:26:16;;;;;;;1.63;0.60;;;8.40;99.90;;;;;;2046304;28;20222;-69
2024/01/18 00:27:17;;;;;;;1.93;0.70;;;8.40;99.90;;;;;;2046716;28;20558;-70
2024/01/18 00:28:18;;;;;;;0.77;0.60;;;8.40;99.90;;;;;;2049627;28;20189;-70
2024/01/18 00:29:18;;;;;;;1.10;0.53;;;8.30;99.90;;;;;;2033997;29;20201;-70
2024/01/18 00:30:19;;;;;;;1.50;0.53;;;8.30;99.90;;;;;;2038223;28;20645;-69
2024/01/18 00:31:20;;;;;;;0.70;0.70;;;8.30;99.90;;;;;;2042992;28;20188;-71
2024/01/18 00:32:20;;;;;;;1.80;0.90;;;8.30;99.90;;;;;;2038695;29;20252;-71
2024/01/18 00:33:21;;;;;;;2.00;0.70;;;8.30;99.90;;;;;;2045512;28;20256;-71
2024/01/18 00:34:22;;;;;;;0.93;0.70;;;8.30;99.90;;;;;;2051039;28;20721;-72
2024/01/18 00:35:22;;;;;;;1.13;0.70;;;8.20;99.90;;;;;;2044656;28;20266;-72
2024/01/18 00:36:27;;;;;;;1.03;0.80;;;8.20;99.90;;;;;;2044161;28;20260;-72
2024/01/18 00:37:28;;;;;;;1.27;0.95;;;8.20;99.90;;;;;;2051068;28;20235;-72
2024/01/18 00:38:28;;;;;;;1.47;0.70;;;8.20;99.90;;;;;;2050627;28;20711;-72
2024/01/18 00:39:29;;;;;;;1.03;0.80;;;8.20;99.90;;;;;;2043395;28;20224;-72
2024/01/18 00:40:30;;;;;;;1.20;0.67;;;8.30;99.90;;;;;;2045491;28;20227;-72
2024/01/18 00:41:31;;;;;;;1.30;0.70;;;8.30;99.90;;;;;;2048479;28;20585;-72
2024/01/18 00:42:32;;;;;;;1.85;0.73;;;8.30;99.90;;;;;;2050855;28;20230;-72
2024/01/18 00:43:33;;;;;;;1.03;0.80;;;8.40;99.90;;;;;;2038057;28;20626;-72
2024/01/18 00:44:33;;;;;;;1.60;0.80;;;8.40;99.90;;;;;;2035851;29;20788;-72
2024/01/18 00:45:34;;;;;;;1.23;0.80;;;8.40;99.90;;;;;;2041773;28;20234;-72
2024/01/18 00:46:35;;;;;;;1.67;0.77;;;8.40;99.90;;;;;;2046265;28;20713;-72
2024/01/18 00:47:35;;;;;;;1.90;1.10;;;8.40;99.90;;;;;;2044336;28;20704;-72
2024/01/18 00:48:36;;;;;;;0.87;0.70;;;8.50;99.90;;;;;;2045399;28;20231;-72
2024/01/18 00:49:37;;;;;;;0.97;0.70;;;8.50;99.90;;;;;;2050041;28;20230;-72
2024/01/18 00:50:37;;;;;;;1.53;0.90;;;8.50;99.90;;;;;;2048895;28;20243;-72
2024/01/18 00:51:38;;;;;;;1.17;1.00;;;8.50;99.90;;;;;;2041475;28;20264;-72
2024/01/18 00:52:39;;;;;;;1.13;1.03;;;8.50;99.90;;;;;;2040615;28;20595;-72
2024/01/18 00:53:39;;;;;;;0.70;0.67;;;8.60;99.90;;;;;;2042042;28;20584;-72
2024/01/18 00:54:40;;;;;;;1.00;0.80;;;8.60;99.90;;;;;;2046400;28;20684;-72
2024/01/18 00:55:41;;;;;;;1.10;0.93;;;8.60;99.90;;;;;;2047141;28;20234;-71
2024/01/18 00:56:41;;;;;;;1.60;1.00;;;8.60;99.90;;;;;;2040313;28;20264;-72
2024/01/18 00:57:42;;;;;;;2.07;0.80;;;8.50;99.90;;;;;;2030141;29;20319;-71
2024/01/18 00:58:44;;;;;;;1.17;1.07;;;8.50;99.90;;;;;;2033121;29;20282;-72
2024/01/18 00:59:45;;;;;;;1.23;0.80;;;8.50;99.90;;;;;;2041640;28;20231;-72
2024/01/18 01:00:47;;;;;;;1.97;0.80;;;8.50;99.90;;;;;;2044078;28;20716;-72
2024/01/18 01:01:47;;;;;;;3.08;1.55;;;8.50;99.90;;;;;;2037832;28;20236;-72
2024/01/18 01:02:48;;;;;;;0.87;0.70;;;8.40;99.90;;;;;;2047947;28;20234;-72
2024/01/18 01:03:49;;;;;;;1.30;0.90;;;8.40;99.90;;;;;;2052881;28;20234;-72
2024/01/18 01:04:49;;;;;;;2.63;1.10;;;8.30;99.90;;;;;;2047625;28;20712;-72
2024/01/18 01:05:50;;;;;;;2.50;0.70;;;8.30;99.90;;;;;;2047448;28;20326;-72
2024/01/18 01:06:51;;;;;;;1.17;0.80;;;8.30;99.90;;;;;;2042535;28;20243;-72
2024/01/18 01:07:51;;;;;;;3.63;1.00;;;8.30;99.90;;;;;;2042985;28;20291;-72
2024/01/18 01:08:52;;;;;;;1.30;0.77;;;8.30;99.90;;;;;;2046214;28;20238;-72
2024/01/18 01:09:53;;;;;;;1.67;0.80;;;8.30;99.90;;;;;;2053867;28;20237;-72
2024/01/18 01:10:53;;;;;;;1.87;1.00;;;8.30;99.90;;;;;;2050987;28;20239;-72
2024/01/18 01:11:54;;;;;;;1.50;1.20;;;8.30;99.90;;;;;;2041697;28;20224;-72
2024/01/18 01:12:55;;;;;;;1.90;0.77;;;8.30;99.90;;;;;;2047630;28;20298;-72
2024/01/18 01:13:55;;;;;;;1.87;0.97;;;8.30;99.90;;;;;;2049599;28;20262;-72
2024/01/18 01:14:56;;;;;;;1.50;0.80;;;8.40;99.90;;;;;;2049263;28;20310;-72
2024/01/18 01:15:57;;;;;;;2.50;1.00;;;8.30;99.90;;;;;;2048832;28;20694;-72
2024/01/18 01:16:57;;;;;;;2.13;1.33;;;8.40;99.90;;;;;;2049666;28;20235;-71
2024/01/18 01:17:58;;;;;;;1.40;0.70;;;8.30;99.90;;;;;;2050954;28;20262;-71
2024/01/18 01:18:59;;;;;;;0.83;0.80;;;8.30;99.90;;;;;;2056008;28;20857;-72
2024/01/18 01:19:59;;;;;;;1.67;0.90;;;8.20;99.90;;;;;;2047835;28;20231;-72
2024/01/18 01:21:00;;;;;;;3.53;0.70;;;8.30;99.90;;;;;;2048565;28;20227;-72
2024/01/18 01:22:01;;;;;;;2.37;0.90;;;8.30;99.90;;;;;;2047184;28;20220;-71
2024/01/18 01:23:02;;;;;;;2.13;0.70;;;8.30;99.90;;;;;;2047772;28;20227;-71
2024/01/18 01:24:03;;;;;;;3.20;0.70;;;8.30;99.90;;;;;;2050163;28;20254;-71
2024/01/18 01:25:04;;;;;;;1.50;0.90;;;8.30;99.90;;;;;;2051002;28;20202;-71
2024/01/18 01:26:05;;;;;;;2.72;1.10;;;8.40;99.90;;;;;;2050886;28;20322;-71
2024/01/18 01:27:06;;;;;;;2.83;1.17;;;8.40;99.90;;;;;;2052059;28;20192;-71
2024/01/18 01:28:07;;;;;;;1.20;0.80;;;8.30;99.90;;;;;;2050997;28;20645;-71
2024/01/18 01:29:10;;;;;;;1.57;0.80;;;8.30;99.90;;;;;;2040339;28;20207;-72
2024/01/18 01:30:11;;;;;;;1.88;0.88;;;8.30;99.90;;;;;;2050926;28;20274;-71
2024/01/18 01:31:12;;;;;;;2.08;0.70;;;8.30;99.90;;;;;;2043753;28;20200;-71
2024/01/18 01:32:12;;;;;;;3.63;0.73;;;8.30;99.90;;;;;;2035651;29;20192;-71
2024/01/18 01:33:13;;;;;;;0.80;0.70;;;8.30;99.90;;;;;;2046251;28;20535;-71
2024/01/18 01:34:14;;;;;;;1.90;0.70;;;8.40;99.90;;;;;;2050425;28;20183;-72
2024/01/18 01:35:15;;;;;;;0.90;0.80;;;8.40;99.90;;;;;;2049145;28;20672;-71
2024/01/18 01:36:15;;;;;;;1.13;0.70;;;8.40;99.90;;;;;;2049159;28;20183;-72
2024/01/18 01:37:16;;;;;;;1.87;0.90;;;8.40;99.90;;;;;;2040283;28;20192;-72
2024/01/18 01:38:17;;;;;;;2.27;0.70;;;8.40;99.90;;;;;;2040944;28;20185;-72
2024/01/18 01:39:17;;;;;;;1.23;0.60;;;8.30;99.90;;;;;;2048597;28;20184;-72
2024/01/18 01:40:18;;;;;;;1.00;0.70;;;8.20;99.90;;;;;;2047670;28;20194;-72
2024/01/18 01:41:20;;;;;;;0.70;0.63;;;8.20;99.90;;;;;;2040308;28;20191;-72
2024/01/18 01:42:20;;;;;;;0.73;0.60;;;8.30;99.90;;;;;;2047146;28;20189;-72
2024/01/18 01:43:22;;;;;;;1.80;0.87;;;8.30;99.90;;;;;;2050891;28;20725;-72
2024/01/18 01:44:23;;;;;;;1.92;0.90;;;8.30;99.90;;;;;;2050531;28;20230;-72
2024/01/18 01:45:23;;;;;;;1.57;1.00;;;8.30;99.90;;;;;;2050346;28;20231;-72
2024/01/18 01:46:25;;;;;;;2.20;0.90;;;8.20;99.90;;;;;;2043146;28;20259;-72
2024/01/18 01:47:26;;;;;;;3.55;0.80;;;8.30;99.90;;;;;;2042077;28;20795;-72
2024/01/18 01:48:27;;;;;;;2.45;0.90;;;8.40;99.90;;;;;;2049613;28;20273;-72
2024/01/18 01:49:28;;;;;;;1.77;0.70;;;8.40;99.90;;;;;;2049543;28;20780;-72
2024/01/18 01:50:28;;;;;;;1.97;0.80;;;8.50;99.90;;;;;;2048357;28;20239;-72
2024/01/18 01:51:51;;;;;;;3.33;1.10;;;8.40;99.90;;;;;;2047901;28;20704;-72
2024/01/18 01:52:52;;;;;;;1.00;0.57;;;8.30;99.90;;;;;;2050527;28;20231;-72
2024/01/18 01:53:53;;;;;;;2.20;0.90;;;8.30;99.90;;;;;;2040710;28;20227;-72
2024/01/18 01:54:55;;;;;;;0.73;0.70;;;8.30;99.90;;;;;;2042005;28;20671;-72
2024/01/18 01:55:56;;;;;;;2.15;0.60;;;8.30;99.90;;;;;;2049358;28;20270;-72
2024/01/18 01:56:58;;;;;;;1.47;0.90;;;8.30;99.90;;;;;;2053813;28;20230;-72
2024/01/18 01:58:00;;;;;;;1.55;0.77;;;8.30;99.90;;;;;;2035445;29;20316;-72
2024/01/18 01:59:00;;;;;;;1.35;0.85;;;8.40;99.90;;;;;;2044306;28;20312;-72
2024/01/18 02:00:03;;;;;;;1.67;0.67;;;8.40;99.90;;;;;;2047466;28;20301;-72
2024/01/18 02:01:03;;;;;;;1.92;0.70;;;8.50;99.90;;;;;;2039683;28;20275;-72
2024/01/18 02:02:06;;;;;;;1.73;0.70;;;8.50;99.90;;;;;;2053174;28;20294;-72
2024/01/18 02:03:06;;;;;;;1.73;0.80;;;8.50;99.90;;;;;;2048904;28;20194;-72
2024/01/18 02:04:07;;;;;;;2.23;0.80;;;8.40;99.90;;;;;;2049729;28;20191;-72
2024/01/18 02:05:09;;;;;;;3.87;0.93;;;8.40;99.90;;;;;;2049017;28;21255;-72
2024/01/18 02:06:10;;;;;;;0.80;0.63;;;8.40;99.90;;;;;;2046265;28;20196;-72
2024/01/18 02:07:12;;;;;;;1.83;0.80;;;8.30;99.90;;;;;;2036293;29;20181;-72
2024/01/18 02:08:13;;;;;;;2.17;0.60;;;8.30;99.90;;;;;;2044817;28;20176;-72
2024/01/18 02:09:13;;;;;;;1.53;0.70;;;8.30;99.90;;;;;;2033245;28;20247;-72
2024/01/18 02:10:14;;;;;;;1.47;0.90;;;8.30;99.90;;;;;;2037386;28;20183;-72
2024/01/18 02:11:16;;;;;;;1.90;0.60;;;8.30;99.90;;;;;;2050951;28;20184;-72
2024/01/18 02:12:18;;;;;;;1.25;0.70;;;8.30;99.90;;;;;;2045440;28;20227;-72
2024/01/18 02:13:20;;;;;;;2.03;0.85;;;8.30;99.90;;;;;;2045963;28;20210;-72
2024/01/18 02:14:21;;;;;;;2.25;0.80;;;8.30;99.90;;;;;;2038243;28;20220;-72
2024/01/18 02:15:22;;;;;;;2.78;0.70;;;8.20;99.90;;;;;;2039627;28;20235;-72
2024/01/18 02:16:23;;;;;;;2.03;1.00;;;8.30;99.90;;;;;;2038398;28;20282;-72
2024/01/18 02:17:24;;;;;;;3.58;1.08;;;8.30;99.90;;;;;;2038757;28;20310;-72
2024/01/18 02:18:25;;;;;;;1.93;0.70;;;8.40;99.90;;;;;;2037848;28;20232;-72
2024/01/18 02:19:25;;;;;;;1.10;0.80;;;8.30;99.90;;;;;;2037909;28;20842;-72
2024/01/18 02:20:26;;;;;;;1.43;0.60;;;8.30;99.90;;;;;;2050508;28;20373;-72
2024/01/18 02:21:27;;;;;;;2.17;0.90;;;8.40;99.90;;;;;;2050767;28;20254;-72
2024/01/18 02:22:29;;;;;;;2.23;0.93;;;8.30;99.90;;;;;;2044700;28;20335;-72
2024/01/18 02:23:31;;;;;;;2.33;0.90;;;8.40;99.90;;;;;;2044978;28;20292;-72
2024/01/18 02:24:45;;;;;;;1.42;0.80;;;8.40;99.90;;;;;;2042261;28;20238;-72
2024/01/18 02:25:46;;;;;;;1.77;0.73;;;8.30;99.90;;;;;;2048666;28;20226;-73
2024/01/18 02:26:47;;;;;;;2.23;1.00;;;8.30;99.90;;;;;;2053996;28;20322;-72
2024/01/18 02:27:48;;;;;;;1.30;0.80;;;8.20;99.90;;;;;;2045253;28;20318;-73
2024/01/18 02:28:56;;;;;;;3.37;0.93;;;8.30;99.90;;;;;;2035002;28;20311;-72
2024/01/18 02:29:57;;;;;;;0.95;0.70;;;8.30;99.90;;;;;;2039563;28;20302;-72
2024/01/18 02:30:58;;;;;;;0.73;0.70;;;8.30;99.90;;;;;;2054922;28;20317;-72
2024/01/18 02:31:58;;;;;;;2.43;0.90;;;8.30;99.90;;;;;;2046799;28;20314;-72
2024/01/18 02:32:59;;;;;;;1.40;0.80;;;8.40;99.90;;;;;;2038596;28;20232;-72
2024/01/18 02:34:00;;;;;;;2.67;1.00;;;8.30;99.90;;;;;;2036911;29;20238;-72
2024/01/18 02:35:01;;;;;;;2.77;0.80;;;8.40;99.90;;;;;;2034653;29;20251;-71
2024/01/18 02:36:02;;;;;;;2.40;0.80;;;8.50;99.90;;;;;;2038060;29;20423;-71
2024/01/18 02:37:02;;;;;;;1.43;0.80;;;8.40;99.90;;;;;;2044512;28;20215;-72
2024/01/18 02:38:04;;;;;;;1.87;1.00;;;8.50;99.90;;;;;;2037784;28;20192;-72
2024/01/18 02:39:05;;;;;;;1.42;0.70;;;8.40;99.90;;;;;;2039444;28;20606;-72
2024/01/18 02:40:06;;;;;;;2.20;0.77;;;8.40;99.90;;;;;;2045774;28;20186;-71
2024/01/18 02:41:07;;;;;;;1.52;0.70;;;8.30;99.90;;;;;;2042175;28;20198;-71
2024/01/18 02:42:08;;;;;;;1.73;0.70;;;8.30;99.90;;;;;;2044378;28;20752;-71
2024/01/18 02:43:09;;;;;;;1.67;0.83;;;8.30;99.90;;;;;;2035085;28;20676;-72
2024/01/18 02:44:09;;;;;;;1.10;1.00;;;8.30;99.90;;;;;;2031832;29;20642;-71
2024/01/18 02:45:11;;;;;;;2.47;0.80;;;8.30;99.90;;;;;;2038218;28;20425;-71
2024/01/18 02:46:17;;;;;;;0.95;0.70;;;8.20;99.90;;;;;;2036022;28;20189;-71
2024/01/18 02:47:18;;;;;;;1.30;0.70;;;8.20;99.90;;;;;;2039099;28;20181;-72
2024/01/18 02:48:18;;;;;;;5.43;1.10;;;8.20;99.90;;;;;;2045635;28;20184;-72
2024/01/18 02:49:19;;;;;;;1.27;0.70;;;8.10;99.90;;;;;;2039332;28;20187;-72
2024/01/18 02:50:20;;;;;;;1.13;0.60;;;8.10;99.90;;;;;;2040942;28;20601;-72
2024/01/18 02:51:21;;;;;;;2.00;0.70;;;8.10;99.90;;;;;;2042316;28;20250;-72
2024/01/18 02:52:22;;;;;;;1.63;0.80;;;8.10;99.90;;;;;;2049041;28;20674;-72
2024/01/18 02:53:22;;;;;;;2.97;1.00;;;8.20;99.90;;;;;;2041752;28;20230;-71
2024/01/18 02:54:23;;;;;;;3.53;0.80;;;8.20;99.90;;;;;;2041247;28;20286;-72
2024/01/18 02:55:23;;;;;;;1.70;0.80;;;8.20;99.90;;;;;;2042309;28;20258;-72
2024/01/18 02:56:24;;;;;;;2.10;0.83;;;8.20;99.90;;;;;;2043681;28;20294;-72
2024/01/18 02:57:25;;;;;;;1.17;0.70;;;8.20;99.90;;;;;;2043487;28;20708;-72
2024/01/18 02:58:25;;;;;;;1.73;0.70;;;8.20;99.90;;;;;;2045560;28;20294;-72
2024/01/18 02:59:26;;;;;;;1.40;0.60;;;8.20;99.90;;;;;;2045560;28;20645;-72
2024/01/18 03:00:27;;;;;;;1.87;0.80;;;8.20;99.90;;;;;;2043967;28;20314;-73
2024/01/18 03:01:28;;;;;;;3.00;0.70;;;8.10;99.90;;;;;;2038027;29;20314;-73
2024/01/18 03:02:28;;;;;;;2.33;0.60;;;8.10;99.90;;;;;;2045269;28;20259;-72
2024/01/18 03:03:29;;;;;;;4.20;1.17;;;8.10;99.90;;;;;;2043532;28;20239;-72
2024/01/18 03:04:31;;;;;;;3.30;0.80;;;8.20;99.90;;;;;;2040848;29;20690;-73
2024/01/18 03:05:33;;;;;;;2.55;0.82;;;8.20;99.90;;;;;;2039452;29;20224;-72
2024/01/18 03:06:34;;;;;;;3.60;1.40;;;8.30;99.90;;;;;;2045212;28;20298;-71
2024/01/18 03:07:35;;;;;;;2.87;0.93;;;8.30;99.90;;;;;;2036709;29;20236;-72
2024/01/18 03:08:36;;;;;;;2.03;0.80;;;8.30;99.90;;;;;;2041440;28;20235;-72
2024/01/18 03:09:37;;;;;;;0.93;0.82;;;8.30;99.90;;;;;;2043850;28;20226;-72
2024/01/18 03:10:38;;;;;;;0.70;0.70;;;8.20;99.90;;;;;;2034243;29;20387;-72
2024/01/18 03:11:38;;;;;;;1.00;0.80;;;8.30;99.90;;;;;;2035124;29;20752;-72
2024/01/18 03:12:39;;;;;;;1.67;0.60;;;8.20;99.90;;;;;;2034797;29;20228;-72
2024/01/18 03:13:40;;;;;;;1.48;0.70;;;8.20;99.90;;;;;;2043113;28;20223;-72
2024/01/18 03:14:41;;;;;;;1.33;0.70;;;8.20;99.90;;;;;;2048308;28;20353;-72
2024/01/18 03:15:42;;;;;;;1.73;0.80;;;8.20;99.90;;;;;;2040790;28;20567;-72
2024/01/18 03:16:43;;;;;;;0.83;0.50;;;8.10;99.90;;;;;;2048112;28;20234;-72
2024/01/18 03:17:44;;;;;;;0.83;0.70;;;8.10;99.90;;;;;;2048929;28;20235;-72
2024/01/18 03:18:46;;;;;;;1.20;0.80;;;8.10;99.90;;;;;;2050420;28;20470;-71
2024/01/18 03:19:46;;;;;;;1.65;0.77;;;8.10;99.90;;;;;;2046375;28;20227;-71
2024/01/18 03:20:47;;;;;;;2.13;1.10;;;8.10;99.90;;;;;;2047846;28;20840;-71
2024/01/18 03:21:48;;;;;;;1.47;0.83;;;8.10;99.90;;;;;;2051655;28;20894;-71
2024/01/18 03:22:48;;;;;;;1.83;0.83;;;8.10;99.90;;;;;;2044216;28;20237;-71
2024/01/18 03:23:49;;;;;;;1.70;0.57;;;8.20;99.90;;;;;;2042207;28;20231;-71
2024/01/18 03:24:52;;;;;;;0.90;0.70;;;8.20;99.90;;;;;;2042994;28;20231;-71
2024/01/18 03:25:53;;;;;;;1.80;0.60;;;8.20;99.90;;;;;;2044828;28;20235;-71
2024/01/18 03:26:54;;;;;;;1.23;0.60;;;8.20;99.90;;;;;;2045490;28;20234;-72
2024/01/18 03:27:55;;;;;;;2.13;0.67;;;8.10;99.90;;;;;;2043972;28;20228;-71
2024/01/18 03:28:55;;;;;;;1.07;0.70;;;8.10;99.90;;;;;;2034992;28;20643;-71
2024/01/18 03:29:56;;;;;;;3.03;0.93;;;8.20;99.90;;;;;;2033233;29;20594;-71
2024/01/18 03:30:57;;;;;;;1.57;0.57;;;8.20;99.90;;;;;;2038897;28;20232;-71
2024/01/18 03:31:58;;;;;;;1.33;0.60;;;8.20;99.90;;;;;;2044528;28;20227;-71
2024/01/18 03:32:59;;;;;;;0.80;0.60;;;8.20;99.90;;;;;;2040802;28;20669;-70
2024/01/18 03:33:59;;;;;;;0.67;0.63;;;8.20;99.90;;;;;;2040115;28;20231;-71
2024/01/18 03:35:00;;;;;;;2.27;0.97;;;8.20;99.90;;;;;;2048206;28;20223;-71
2024/01/18 03:36:00;;;;;;;1.73;0.80;;;8.20;99.90;;;;;;2051569;28;20223;-71
2024/01/18 03:37:01;;;;;;;1.63;0.70;;;8.20;99.90;;;;;;2047115;28;20223;-71
2024/01/18 03:38:02;;;;;;;1.40;0.77;;;8.10;99.90;;;;;;2051889;28;20183;-71
2024/01/18 03:39:03;;;;;;;1.07;0.63;;;8.20;99.90;;;;;;2047263;28;20207;-71
2024/01/18 03:40:05;;;;;;;1.90;0.67;;;8.20;99.90;;;;;;2047769;28;20219;-71
2024/01/18 03:41:05;;;;;;;1.88;0.70;;;8.20;99.90;;;;;;2043865;28;20230;-72
2024/01/18 03:42:06;;;;;;;0.80;0.50;;;8.10;99.90;;;;;;2042466;28;20205;-71
2024/01/18 03:43:07;;;;;;;0.80;0.60;;;8.10;99.90;;;;;;2037472;28;20187;-71
2024/01/18 03:44:08;;;;;;;2.58;0.65;;;8.10;99.90;;;;;;2036705;28;20255;-71
2024/01/18 03:45:09;;;;;;;1.43;0.53;;;8.10;99.90;;;;;;2032690;29;20196;-72
2024/01/18 03:46:16;;;;;;;1.15;0.80;;;8.10;99.90;;;;;;2032121;29;20196;-71
2024/01/18 03:47:16;;;;;;;1.75;0.68;;;8.10;99.90;;;;;;2033735;29;20192;-71
2024/01/18 03:48:17;;;;;;;2.77;0.70;;;8.20;99.90;;;;;;2031855;29;20829;-71
2024/01/18 03:49:18;;;;;;;1.90;0.97;;;8.20;99.90;;;;;;2037107;28;20180;-71
2024/01/18 03:50:19;;;;;;;1.33;0.60;;;8.20;99.90;;;;;;2032715;29;20283;-72
2024/01/18 03:51:20;;;;;;;1.90;0.77;;;8.20;99.90;;;;;;2029267;29;20185;-71
2024/01/18 03:52:21;;;;;;;0.83;0.50;;;8.20;99.90;;;;;;2047590;28;20229;-71
2024/01/18 03:53:21;;;;;;;7.50;1.20;;;8.30;99.90;;;;;;2048020;28;20291;-71
2024/01/18 03:54:22;;;;;;;0.90;0.70;;;8.20;99.90;;;;;;2037157;28;20251;-71
2024/01/18 03:55:23;;;;;;;1.73;0.93;;;8.20;99.90;;;;;;2032751;29;20224;-71
2024/01/18 03:56:24;;;;;;;0.90;0.70;;;8.20;99.90;;;;;;2038034;28;20247;-72
2024/01/18 03:57:25;;;;;;;2.53;0.50;;;8.20;99.90;;;;;;2044958;28;20343;-72
2024/01/18 03:58:26;;;;;;;1.30;0.70;;;8.20;99.90;;;;;;2037074;28;20265;-72
2024/01/18 03:59:27;;;;;;;0.60;0.50;;;8.30;99.90;;;;;;2044920;28;20228;-72
2024/01/18 04:00:28;;;;;;;1.80;0.60;;;8.20;99.90;;;;;;2046489;28;20719;-72
2024/01/18 04:01:34;;;;;;;1.93;0.73;;;8.20;99.90;;;;;;2045328;28;20227;-72
2024/01/18 04:02:35;;;;;;;1.50;0.52;;;8.20;99.90;;;;;;2037314;28;20283;-72
2024/01/18 04:03:36;;;;;;;2.20;0.80;;;8.10;99.90;;;;;;2030565;29;20268;-72
2024/01/18 04:04:36;;;;;;;2.03;0.60;;;8.10;99.90;;;;;;2039109;28;20728;-72
2024/01/18 04:05:37;;;;;;;1.03;0.57;;;8.10;99.90;;;;;;2038787;28;20231;-72
2024/01/18 04:06:38;;;;;;;2.03;0.73;;;8.10;99.90;;;;;;2036614;28;20345;-72
2024/01/18 04:07:39;;;;;;;2.23;0.70;;;8.10;99.90;;;;;;2038472;28;20328;-72
2024/01/18 04:08:39;;;;;;;0.90;0.60;;;8.10;99.90;;;;;;2038354;28;20252;-72
2024/01/18 04:09:40;;;;;;;1.17;0.53;;;8.00;99.90;;;;;;2036621;28;20227;-72
2024/01/18 04:10:41;;;;;;;1.87;0.60;;;8.00;99.90;;;;;;2037915;28;20232;-72
2024/01/18 04:11:42;;;;;;;1.07;0.63;;;8.00;99.90;;;;;;2038002;28;20228;-72
2024/01/18 04:12:43;;;;;;;1.92;0.60;;;8.00;99.90;;;;;;2037159;28;20228;-72
2024/01/18 04:13:44;;;;;;;5.60;0.93;;;8.00;99.90;;;;;;2036415;28;20267;-72
2024/01/18 04:14:45;;;;;;;2.30;1.90;;;8.00;99.90;;;;;;2037122;28;20276;-72
2024/01/18 04:15:45;;;;;;;0.93;0.90;;;8.00;99.90;;;;;;2038982;28;20232;-72
2024/01/18 04:16:46;;;;;;;2.30;0.87;;;8.00;99.90;;;;;;2037911;28;20224;-72
2024/01/18 04:17:47;;;;;;;0.93;0.70;;;7.90;99.90;;;;;;2038670;28;20601;-72
2024/01/18 04:18:47;;;;;;;1.27;0.70;;;7.90;99.90;;;;;;2040271;29;20232;-72
2024/01/18 04:19:48;;;;;;;1.13;0.70;;;7.80;99.90;;;;;;2037334;28;20224;-72
2024/01/18 04:20:52;;;;;;;1.17;0.77;;;7.70;99.90;;;;;;2043302;28;20245;-72
2024/01/18 04:21:53;;;;;;;2.03;0.80;;;7.60;99.90;;;;;;2038213;28;20234;-71
2024/01/18 04:22:54;;;;;;;1.90;0.90;;;7.60;99.90;;;;;;2031344;28;20320;-72
2024/01/18 04:23:56;;;;;;;3.43;0.60;;;7.60;99.90;;;;;;2036775;28;20733;-71
2024/01/18 04:24:57;;;;;;;2.13;0.90;;;7.60;99.90;;;;;;2037638;28;20478;-71
2024/01/18 04:25:58;;;;;;;2.35;0.95;;;7.60;99.90;;;;;;2036818;28;20312;-71
2024/01/18 04:26:58;;;;;;;3.57;1.50;;;7.60;99.90;;;;;;2032438;29;20235;-72
2024/01/18 04:27:59;;;;;;;2.93;0.97;;;7.50;99.90;;;;;;2031894;29;20235;-72
2024/01/18 04:29:03;;;;;;;3.07;1.10;;;7.40;99.90;;;;;;2032370;29;20232;-72
2024/01/18 04:30:05;;;;;;;1.08;0.93;;;7.30;99.90;;;;;;2046182;28;21195;-71
2024/01/18 04:31:06;;;;;;;1.60;0.90;;;7.30;99.90;;;;;;2048879;28;20292;-72
2024/01/18 04:32:06;;;;;;;1.60;1.07;;;7.30;99.90;;;;;;2048339;28;20196;-72
2024/01/18 04:33:07;;;;;;;1.37;0.90;;;7.30;99.90;;;;;;2048193;28;20640;-71
2024/01/18 04:34:08;;;;;;;2.07;1.00;;;7.30;99.90;;;;;;2040408;28;20239;-72
2024/01/18 04:35:08;;;;;;;2.00;0.87;;;7.30;99.90;;;;;;2048079;28;20222;-71
2024/01/18 04:36:09;;;;;;;1.00;0.90;;;7.30;99.90;;;;;;2047092;28;20220;-72
2024/01/18 04:37:11;;;;;;;2.47;1.23;;;7.40;99.90;;;;;;2039523;29;20280;-72
2024/01/18 04:38:13;;;;;;;1.38;1.20;;;7.40;99.90;;;;;;2037012;28;20188;-72
2024/01/18 04:39:14;;;;;;;2.45;1.20;;;7.50;99.90;;;;;;2045715;28;20210;-71
2024/01/18 04:40:15;;;;;;;1.65;1.13;;;7.40;99.90;;;;;;2044768;28;20572;-72
2024/01/18 04:41:15;;;;;;;1.83;1.00;;;7.40;99.90;;;;;;2044828;28;20185;-72
2024/01/18 04:42:16;;;;;;;1.50;1.00;;;7.30;99.90;;;;;;2045306;28;20186;-71
2024/01/18 04:43:17;;;;;;;1.10;1.00;;;7.20;99.90;;;;;;2045118;28;20179;-71
2024/01/18 04:44:18;;;;;;;1.33;1.23;;;7.20;99.90;;;;;;2045381;28;20188;-71
2024/01/18 04:45:19;;;;;;;3.00;1.43;;;7.20;99.90;;;;;;2031153;28;20195;-71
2024/01/18 04:46:22;;;;;;;1.42;1.33;;;7.10;99.90;;;;;;2043773;28;20179;-72
2024/01/18 04:47:23;;;;;;;1.75;1.40;;;7.00;99.90;;;;;;2036384;28;20224;-71
2024/01/18 04:48:24;;;;;;;1.37;1.10;;;6.90;99.90;;;;;;2024859;29;20251;-72
2024/01/18 04:49:25;;;;;;;1.52;1.10;;;6.80;99.90;;;;;;2042449;28;20306;-71
2024/01/18 04:50:26;;;;;;;3.30;1.33;;;6.80;99.90;;;;;;2046778;28;20230;-72
2024/01/18 04:51:26;;;;;;;1.67;1.57;;;6.90;99.90;;;;;;2048816;28;20905;-71
2024/01/18 04:52:27;;;;;;;1.73;1.33;;;6.90;99.90;;;;;;2047305;28;20275;-71
2024/01/18 04:53:27;;;;;;;1.93;1.53;;;6.90;99.90;;;;;;2048083;28;20366;-71
2024/01/18 04:54:28;;;;;;;1.43;1.33;;;6.90;99.90;;;;;;2048039;28;20313;-72
2024/01/18 04:55:29;;;;;;;2.43;1.70;;;6.90;99.90;;;;;;2043034;28;20314;-71
2024/01/18 04:56:29;;;;;;;4.20;3.83;;;6.90;99.90;;;;;;2038144;28;20325;-72
2024/01/18 04:57:35;;;;;;;2.10;1.87;;;6.90;99.90;;;;;;2036748;28;20232;-71
2024/01/18 04:58:36;;;;;;;1.40;1.30;;;7.00;99.90;;;;;;2046198;28;20231;-71
2024/01/18 04:59:37;;;;;;;1.60;1.50;;;7.00;99.90;;;;;;2045732;28;20265;-72
2024/01/18 05:00:37;;;;;;;2.43;1.43;;;7.00;99.90;;;;;;2046718;28;20231;-71
2024/01/18 05:01:39;;;;;;;1.80;1.23;;;7.00;99.90;;;;;;2037431;28;20231;-71
2024/01/18 05:02:41;;;;;;;2.03;1.63;;;7.00;99.90;;;;;;2047004;28;20238;-71
2024/01/18 05:03:41;;;;;;;2.47;1.40;;;7.00;99.90;;;;;;2029589;28;20271;-71
2024/01/18 05:04:42;;;;;;;1.57;1.47;;;7.00;99.90;;;;;;2035743;29;20728;-71
2024/01/18 05:05:43;;;;;;;1.47;1.30;;;6.90;99.90;;;;;;2053758;28;20226;-71
2024/01/18 05:06:43;;;;;;;1.70;1.50;;;6.90;99.90;;;;;;2038517;28;20296;-71
2024/01/18 05:07:44;;;;;;;1.83;1.63;;;6.90;99.90;;;;;;2042260;28;20231;-71
2024/01/18 05:08:45;;;;;;;4.27;1.37;;;6.80;99.90;;;;;;2044508;28;20262;-71
2024/01/18 05:09:46;;;;;;;1.48;1.27;;;6.80;99.90;;;;;;2033718;28;20251;-72
2024/01/18 05:10:46;;;;;;;1.20;1.10;;;6.80;99.90;;;;;;2043995;28;20248;-71
2024/01/18 05:11:47;;;;;;;1.10;1.00;;;6.80;99.90;;;;;;2048155;28;20227;-71
2024/01/18 05:12:48;;;;;;;1.67;1.10;;;6.80;99.90;;;;;;2047246;28;20230;-71
2024/01/18 05:13:49;;;;;;;1.45;1.00;;;6.90;99.90;;;;;;2045113;28;20238;-71
2024/01/18 05:14:50;;;;;;;1.40;1.00;;;6.90;99.90;;;;;;2048660;28;20600;-71
2024/01/18 05:15:51;;;;;;;1.57;1.30;;;6.80;99.90;;;;;;2046636;28;20234;-72
2024/01/18 05:16:53;;;;;;;2.22;1.42;;;6.80;99.90;;;;;;2042790;28;20286;-71
2024/01/18 05:17:54;;;;;;;1.88;1.00;;;6.80;99.90;;;;;;2050814;28;20238;-71
2024/01/18 05:18:55;;;;;;;0.93;0.70;;;6.80;99.90;;;;;;2046365;28;20231;-71
2024/01/18 05:19:56;;;;;;;1.33;0.97;;;6.80;99.90;;;;;;2047623;28;20219;-71
2024/01/18 05:20:56;;;;;;;0.97;0.67;;;6.80;99.90;;;;;;2047105;28;20265;-71
2024/01/18 05:21:57;;;;;;;0.50;0.50;;;6.80;99.90;;;;;;2038797;28;20235;-72
2024/01/18 05:22:58;;;;;;;0.70;0.70;;;6.80;99.90;;;;;;2045611;28;20971;-71